sensor_id;sensor_type;location;lat;lon;timestamp;P1;durP1;ratioP1;P2;durP2;ratioP2
1957;SDS011;979;51.076;13.748;2023-08-08T00:00:33;0.50;;;0.50;;
1957;SDS011;979;51.076;13.748;2023-08-08T00:03:01;1.10;;;1.10;;
1957;SDS011;979;51.076;13.748;2023-08-08T00:05:30;0.50;;;0.50;;
1957;SDS011;979;51.076;13.748;2023-08-08T00:08:00;0.50;;;0.50;;
1957;SDS011;979;51.076;13.748;2023-08-08T00:10:30;0.50;;;0.50;;
1957;SDS011;979;51.076;13.748;2023-08-08T00:12:59;0.50;;;0.50;;
1957;SDS011;979;51.076;13.748;2023-08-08T00:15:28;0.50;;;0.50;;
1957;SDS011;979;51.076;13.748;2023-08-08T00:17:59;0.50;;;0.50;;
1957;SDS011;979;51.076;13.748;2023-08-08T00:20:29;0.83;;;0.83;;
1957;SDS011;979;51.076;13.748;2023-08-08T00:22:59;0.70;;;0.70;;
1957;SDS011;979;51.076;13.748;2023-08-08T00:25:27;0.70;;;0.70;;
1957;SDS011;979;51.076;13.748;2023-08-08T00:27:56;0.50;;;0.50;;
1957;SDS011;979;51.076;13.748;2023-08-08T00:30:24;0.50;;;0.50;;
1957;SDS011;979;51.076;13.748;2023-08-08T00:32:52;0.50;;;0.50;;
1957;SDS011;979;51.076;13.748;2023-08-08T00:35:21;0.73;;;0.73;;
1957;SDS011;979;51.076;13.748;2023-08-08T00:37:49;0.50;;;0.50;;
1957;SDS011;979;51.076;13.748;2023-08-08T00:40:19;0.50;;;0.50;;
1957;SDS011;979;51.076;13.748;2023-08-08T00:42:47;0.50;;;0.50;;
1957;SDS011;979;51.076;13.748;2023-08-08T00:45:15;0.70;;;0.70;;
1957;SDS011;979;51.076;13.748;2023-08-08T00:47:47;0.60;;;0.60;;
1957;SDS011;979;51.076;13.748;2023-08-08T00:50:18;11.93;;;1.23;;
1957;SDS011;979;51.076;13.748;2023-08-08T00:52:47;0.70;;;0.70;;
1957;SDS011;979;51.076;13.748;2023-08-08T00:55:20;0.50;;;0.50;;
1957;SDS011;979;51.076;13.748;2023-08-08T00:57:49;0.77;;;0.77;;
1957;SDS011;979;51.076;13.748;2023-08-08T01:00:19;2.27;;;2.20;;
1957;SDS011;979;51.076;13.748;2023-08-08T01:02:50;0.60;;;0.60;;
1957;SDS011;979;51.076;13.748;2023-08-08T01:05:18;0.50;;;0.50;;
1957;SDS011;979;51.076;13.748;2023-08-08T01:07:50;0.50;;;0.50;;
1957;SDS011;979;51.076;13.748;2023-08-08T01:10:24;0.80;;;0.80;;
1957;SDS011;979;51.076;13.748;2023-08-08T01:12:55;0.50;;;0.50;;
1957;SDS011;979;51.076;13.748;2023-08-08T01:15:27;0.60;;;0.50;;
1957;SDS011;979;51.076;13.748;2023-08-08T01:18:01;0.67;;;0.60;;
1957;SDS011;979;51.076;13.748;2023-08-08T01:20:32;3.03;;;0.90;;
1957;SDS011;979;51.076;13.748;2023-08-08T01:23:06;1.40;;;1.30;;
1957;SDS011;979;51.076;13.748;2023-08-08T01:25:44;0.53;;;0.53;;
1957;SDS011;979;51.076;13.748;2023-08-08T01:28:15;0.50;;;0.50;;
1957;SDS011;979;51.076;13.748;2023-08-08T01:30:47;0.50;;;0.50;;
1957;SDS011;979;51.076;13.748;2023-08-08T01:33:17;0.50;;;0.50;;
1957;SDS011;979;51.076;13.748;2023-08-08T01:35:46;0.60;;;0.60;;
1957;SDS011;979;51.076;13.748;2023-08-08T01:38:23;0.50;;;0.50;;
1957;SDS011;979;51.076;13.748;2023-08-08T01:40:57;6.50;;;0.90;;
1957;SDS011;979;51.076;13.748;2023-08-08T01:43:27;0.50;;;0.50;;
1957;SDS011;979;51.076;13.748;2023-08-08T01:45:57;0.60;;;0.60;;
1957;SDS011;979;51.076;13.748;2023-08-08T01:48:27;0.50;;;0.50;;
1957;SDS011;979;51.076;13.748;2023-08-08T01:50:58;0.50;;;0.50;;
1957;SDS011;979;51.076;13.748;2023-08-08T01:53:26;0.50;;;0.50;;
1957;SDS011;979;51.076;13.748;2023-08-08T01:55:54;1.23;;;0.90;;
1957;SDS011;979;51.076;13.748;2023-08-08T01:58:24;0.50;;;0.50;;
1957;SDS011;979;51.076;13.748;2023-08-08T02:00:52;0.90;;;0.70;;
1957;SDS011;979;51.076;13.748;2023-08-08T02:03:21;0.67;;;0.67;;
1957;SDS011;979;51.076;13.748;2023-08-08T02:05:49;2.63;;;1.70;;
1957;SDS011;979;51.076;13.748;2023-08-08T02:08:20;1.50;;;1.43;;
1957;SDS011;979;51.076;13.748;2023-08-08T02:10:48;0.50;;;0.50;;
1957;SDS011;979;51.076;13.748;2023-08-08T02:13:16;0.50;;;0.50;;
1957;SDS011;979;51.076;13.748;2023-08-08T02:15:46;0.50;;;0.50;;
1957;SDS011;979;51.076;13.748;2023-08-08T02:18:14;0.63;;;0.63;;
1957;SDS011;979;51.076;13.748;2023-08-08T02:20:42;0.50;;;0.50;;
1957;SDS011;979;51.076;13.748;2023-08-08T02:23:11;0.50;;;0.50;;
1957;SDS011;979;51.076;13.748;2023-08-08T02:25:39;0.50;;;0.50;;
1957;SDS011;979;51.076;13.748;2023-08-08T02:28:09;0.50;;;0.50;;
1957;SDS011;979;51.076;13.748;2023-08-08T02:30:38;0.67;;;0.67;;
1957;SDS011;979;51.076;13.748;2023-08-08T02:33:10;0.50;;;0.50;;
1957;SDS011;979;51.076;13.748;2023-08-08T02:35:38;0.60;;;0.60;;
1957;SDS011;979;51.076;13.748;2023-08-08T02:38:07;0.50;;;0.50;;
1957;SDS011;979;51.076;13.748;2023-08-08T02:40:35;0.50;;;0.50;;
1957;SDS011;979;51.076;13.748;2023-08-08T02:43:05;0.50;;;0.50;;
1957;SDS011;979;51.076;13.748;2023-08-08T02:45:36;0.60;;;0.60;;
1957;SDS011;979;51.076;13.748;2023-08-08T02:48:04;0.83;;;0.83;;
1957;SDS011;979;51.076;13.748;2023-08-08T02:50:35;0.60;;;0.60;;
1957;SDS011;979;51.076;13.748;2023-08-08T02:53:03;0.70;;;0.70;;
1957;SDS011;979;51.076;13.748;2023-08-08T02:55:37;0.50;;;0.50;;
1957;SDS011;979;51.076;13.748;2023-08-08T02:58:06;0.50;;;0.50;;
1957;SDS011;979;51.076;13.748;2023-08-08T03:00:34;0.50;;;0.50;;
1957;SDS011;979;51.076;13.748;2023-08-08T03:03:04;0.60;;;0.60;;
1957;SDS011;979;51.076;13.748;2023-08-08T03:05:32;0.50;;;0.50;;
1957;SDS011;979;51.076;13.748;2023-08-08T03:08:03;0.50;;;0.50;;
1957;SDS011;979;51.076;13.748;2023-08-08T03:10:34;0.50;;;0.50;;
1957;SDS011;979;51.076;13.748;2023-08-08T03:13:04;0.50;;;0.50;;
1957;SDS011;979;51.076;13.748;2023-08-08T03:15:35;0.50;;;0.50;;
1957;SDS011;979;51.076;13.748;2023-08-08T03:18:04;0.50;;;0.50;;
1957;SDS011;979;51.076;13.748;2023-08-08T03:20:35;0.50;;;0.50;;
1957;SDS011;979;51.076;13.748;2023-08-08T03:23:05;2.40;;;2.30;;
1957;SDS011;979;51.076;13.748;2023-08-08T03:25:37;1.27;;;0.90;;
1957;SDS011;979;51.076;13.748;2023-08-08T03:28:05;0.50;;;0.50;;
1957;SDS011;979;51.076;13.748;2023-08-08T03:30:35;1.10;;;1.00;;
1957;SDS011;979;51.076;13.748;2023-08-08T03:33:06;0.50;;;0.50;;
1957;SDS011;979;51.076;13.748;2023-08-08T03:35:38;0.50;;;0.50;;
1957;SDS011;979;51.076;13.748;2023-08-08T03:38:07;0.50;;;0.50;;
1957;SDS011;979;51.076;13.748;2023-08-08T03:40:44;0.60;;;0.60;;
1957;SDS011;979;51.076;13.748;2023-08-08T03:43:12;0.50;;;0.50;;
1957;SDS011;979;51.076;13.748;2023-08-08T03:45:40;0.60;;;0.60;;
1957;SDS011;979;51.076;13.748;2023-08-08T03:48:09;0.50;;;0.50;;
1957;SDS011;979;51.076;13.748;2023-08-08T03:50:41;0.60;;;0.60;;
1957;SDS011;979;51.076;13.748;2023-08-08T03:53:09;0.50;;;0.50;;
1957;SDS011;979;51.076;13.748;2023-08-08T03:55:37;0.50;;;0.50;;
1957;SDS011;979;51.076;13.748;2023-08-08T03:58:06;0.50;;;0.50;;
1957;SDS011;979;51.076;13.748;2023-08-08T04:00:34;0.50;;;0.50;;
1957;SDS011;979;51.076;13.748;2023-08-08T04:03:18;0.50;;;0.50;;
1957;SDS011;979;51.076;13.748;2023-08-08T04:05:52;0.50;;;0.50;;
1957;SDS011;979;51.076;13.748;2023-08-08T04:08:20;0.60;;;0.60;;
1957;SDS011;979;51.076;13.748;2023-08-08T04:10:49;0.50;;;0.50;;
1957;SDS011;979;51.076;13.748;2023-08-08T04:13:19;0.50;;;0.50;;
1957;SDS011;979;51.076;13.748;2023-08-08T04:15:47;0.50;;;0.50;;
1957;SDS011;979;51.076;13.748;2023-08-08T04:18:18;0.50;;;0.50;;
1957;SDS011;979;51.076;13.748;2023-08-08T04:20:46;0.50;;;0.50;;
1957;SDS011;979;51.076;13.748;2023-08-08T04:23:18;0.50;;;0.50;;
1957;SDS011;979;51.076;13.748;2023-08-08T04:25:46;0.50;;;0.50;;
1957;SDS011;979;51.076;13.748;2023-08-08T04:28:14;0.50;;;0.50;;
1957;SDS011;979;51.076;13.748;2023-08-08T04:30:45;0.50;;;0.50;;
1957;SDS011;979;51.076;13.748;2023-08-08T04:33:13;0.60;;;0.60;;
1957;SDS011;979;51.076;13.748;2023-08-08T04:35:42;0.73;;;0.73;;
1957;SDS011;979;51.076;13.748;2023-08-08T04:38:10;0.50;;;0.50;;
1957;SDS011;979;51.076;13.748;2023-08-08T04:40:45;0.50;;;0.50;;
1957;SDS011;979;51.076;13.748;2023-08-08T04:43:13;0.50;;;0.50;;
1957;SDS011;979;51.076;13.748;2023-08-08T04:45:41;0.50;;;0.50;;
1957;SDS011;979;51.076;13.748;2023-08-08T04:48:11;0.50;;;0.50;;
1957;SDS011;979;51.076;13.748;2023-08-08T04:50:39;0.60;;;0.60;;
1957;SDS011;979;51.076;13.748;2023-08-08T04:53:10;0.50;;;0.50;;
1957;SDS011;979;51.076;13.748;2023-08-08T04:55:38;0.60;;;0.60;;
1957;SDS011;979;51.076;13.748;2023-08-08T04:58:08;0.83;;;0.83;;
1957;SDS011;979;51.076;13.748;2023-08-08T05:00:38;0.60;;;0.60;;
1957;SDS011;979;51.076;13.748;2023-08-08T05:03:07;0.73;;;0.73;;
1957;SDS011;979;51.076;13.748;2023-08-08T05:05:37;0.50;;;0.50;;
1957;SDS011;979;51.076;13.748;2023-08-08T05:08:06;0.50;;;0.50;;
1957;SDS011;979;51.076;13.748;2023-08-08T05:10:34;0.50;;;0.50;;
1957;SDS011;979;51.076;13.748;2023-08-08T05:13:02;0.60;;;0.60;;
1957;SDS011;979;51.076;13.748;2023-08-08T05:15:34;0.50;;;0.50;;
1957;SDS011;979;51.076;13.748;2023-08-08T05:18:03;0.50;;;0.50;;
1957;SDS011;979;51.076;13.748;2023-08-08T05:20:34;0.50;;;0.50;;
1957;SDS011;979;51.076;13.748;2023-08-08T05:23:02;0.53;;;0.53;;
1957;SDS011;979;51.076;13.748;2023-08-08T05:25:30;1.37;;;1.27;;
1957;SDS011;979;51.076;13.748;2023-08-08T05:27:59;0.70;;;0.70;;
1957;SDS011;979;51.076;13.748;2023-08-08T05:30:27;0.87;;;0.87;;
1957;SDS011;979;51.076;13.748;2023-08-08T05:32:57;0.50;;;0.50;;
1957;SDS011;979;51.076;13.748;2023-08-08T05:35:25;0.57;;;0.57;;
1957;SDS011;979;51.076;13.748;2023-08-08T05:37:53;1.00;;;0.90;;
1957;SDS011;979;51.076;13.748;2023-08-08T05:40:24;0.50;;;0.50;;
1957;SDS011;979;51.076;13.748;2023-08-08T05:42:53;1.33;;;0.77;;
1957;SDS011;979;51.076;13.748;2023-08-08T05:45:21;0.50;;;0.50;;
1957;SDS011;979;51.076;13.748;2023-08-08T05:47:50;1.53;;;1.13;;
1957;SDS011;979;51.076;13.748;2023-08-08T05:50:20;0.50;;;0.50;;
1957;SDS011;979;51.076;13.748;2023-08-08T05:52:49;0.50;;;0.50;;
1957;SDS011;979;51.076;13.748;2023-08-08T05:55:17;1.27;;;1.10;;
1957;SDS011;979;51.076;13.748;2023-08-08T05:57:48;0.50;;;0.50;;
1957;SDS011;979;51.076;13.748;2023-08-08T06:00:19;0.50;;;0.50;;
1957;SDS011;979;51.076;13.748;2023-08-08T06:02:47;1.27;;;1.27;;
1957;SDS011;979;51.076;13.748;2023-08-08T06:05:16;4.20;;;0.97;;
1957;SDS011;979;51.076;13.748;2023-08-08T06:07:46;0.50;;;0.50;;
1957;SDS011;979;51.076;13.748;2023-08-08T06:10:15;0.50;;;0.50;;
1957;SDS011;979;51.076;13.748;2023-08-08T06:12:44;0.70;;;0.70;;
1957;SDS011;979;51.076;13.748;2023-08-08T06:15:15;0.50;;;0.50;;
1957;SDS011;979;51.076;13.748;2023-08-08T06:17:43;0.70;;;0.60;;
1957;SDS011;979;51.076;13.748;2023-08-08T06:20:11;0.50;;;0.50;;
1957;SDS011;979;51.076;13.748;2023-08-08T06:22:41;1.97;;;1.83;;
1957;SDS011;979;51.076;13.748;2023-08-08T06:25:11;0.50;;;0.50;;
1957;SDS011;979;51.076;13.748;2023-08-08T06:27:39;0.60;;;0.60;;
1957;SDS011;979;51.076;13.748;2023-08-08T06:30:13;0.50;;;0.50;;
1957;SDS011;979;51.076;13.748;2023-08-08T06:32:41;0.50;;;0.50;;
1957;SDS011;979;51.076;13.748;2023-08-08T06:35:10;0.50;;;0.50;;
1957;SDS011;979;51.076;13.748;2023-08-08T06:37:43;0.50;;;0.50;;
1957;SDS011;979;51.076;13.748;2023-08-08T06:40:13;0.60;;;0.60;;
1957;SDS011;979;51.076;13.748;2023-08-08T06:42:41;2.07;;;1.97;;
1957;SDS011;979;51.076;13.748;2023-08-08T06:45:10;0.60;;;0.60;;
1957;SDS011;979;51.076;13.748;2023-08-08T06:47:39;2.80;;;2.70;;
1957;SDS011;979;51.076;13.748;2023-08-08T06:50:07;0.50;;;0.50;;
1957;SDS011;979;51.076;13.748;2023-08-08T06:52:36;0.60;;;0.60;;
1957;SDS011;979;51.076;13.748;2023-08-08T06:55:08;0.50;;;0.50;;
1957;SDS011;979;51.076;13.748;2023-08-08T06:57:42;0.60;;;0.60;;
1957;SDS011;979;51.076;13.748;2023-08-08T07:00:10;0.80;;;0.80;;
1957;SDS011;979;51.076;13.748;2023-08-08T07:02:40;0.50;;;0.50;;
1957;SDS011;979;51.076;13.748;2023-08-08T07:05:10;0.50;;;0.50;;
1957;SDS011;979;51.076;13.748;2023-08-08T07:07:41;0.50;;;0.50;;
1957;SDS011;979;51.076;13.748;2023-08-08T07:10:11;0.50;;;0.50;;
1957;SDS011;979;51.076;13.748;2023-08-08T07:12:39;0.50;;;0.50;;
1957;SDS011;979;51.076;13.748;2023-08-08T07:15:09;0.50;;;0.50;;
1957;SDS011;979;51.076;13.748;2023-08-08T07:17:38;0.50;;;0.50;;
1957;SDS011;979;51.076;13.748;2023-08-08T07:20:06;0.50;;;0.50;;
1957;SDS011;979;51.076;13.748;2023-08-08T07:22:38;0.50;;;0.50;;
1957;SDS011;979;51.076;13.748;2023-08-08T07:25:06;0.60;;;0.60;;
1957;SDS011;979;51.076;13.748;2023-08-08T07:27:35;0.50;;;0.50;;
1957;SDS011;979;51.076;13.748;2023-08-08T07:30:05;0.90;;;0.90;;
1957;SDS011;979;51.076;13.748;2023-08-08T07:32:35;0.50;;;0.50;;
1957;SDS011;979;51.076;13.748;2023-08-08T07:35:05;0.50;;;0.50;;
1957;SDS011;979;51.076;13.748;2023-08-08T07:37:37;1.73;;;1.27;;
1957;SDS011;979;51.076;13.748;2023-08-08T07:40:13;6.90;;;1.60;;
1957;SDS011;979;51.076;13.748;2023-08-08T07:42:44;0.50;;;0.50;;
1957;SDS011;979;51.076;13.748;2023-08-08T07:45:14;0.50;;;0.50;;
1957;SDS011;979;51.076;13.748;2023-08-08T07:47:43;0.60;;;0.60;;
1957;SDS011;979;51.076;13.748;2023-08-08T07:50:15;0.87;;;0.87;;
1957;SDS011;979;51.076;13.748;2023-08-08T07:52:43;0.70;;;0.70;;
1957;SDS011;979;51.076;13.748;2023-08-08T07:55:11;1.70;;;1.70;;
1957;SDS011;979;51.076;13.748;2023-08-08T07:57:39;0.50;;;0.50;;
1957;SDS011;979;51.076;13.748;2023-08-08T08:00:08;0.90;;;0.90;;
1957;SDS011;979;51.076;13.748;2023-08-08T08:02:41;0.60;;;0.50;;
1957;SDS011;979;51.076;13.748;2023-08-08T08:05:12;0.83;;;0.83;;
1957;SDS011;979;51.076;13.748;2023-08-08T08:07:41;0.50;;;0.50;;
1957;SDS011;979;51.076;13.748;2023-08-08T08:10:10;0.60;;;0.60;;
1957;SDS011;979;51.076;13.748;2023-08-08T08:12:40;0.60;;;0.60;;
1957;SDS011;979;51.076;13.748;2023-08-08T08:15:09;0.60;;;0.60;;
1957;SDS011;979;51.076;13.748;2023-08-08T08:17:37;0.60;;;0.60;;
1957;SDS011;979;51.076;13.748;2023-08-08T08:20:08;0.50;;;0.50;;
1957;SDS011;979;51.076;13.748;2023-08-08T08:22:38;0.50;;;0.50;;
1957;SDS011;979;51.076;13.748;2023-08-08T08:25:07;0.50;;;0.50;;
1957;SDS011;979;51.076;13.748;2023-08-08T08:27:36;0.60;;;0.60;;
1957;SDS011;979;51.076;13.748;2023-08-08T08:30:07;0.50;;;0.50;;
1957;SDS011;979;51.076;13.748;2023-08-08T08:32:36;0.50;;;0.50;;
1957;SDS011;979;51.076;13.748;2023-08-08T08:35:09;0.50;;;0.50;;
1957;SDS011;979;51.076;13.748;2023-08-08T08:37:39;0.50;;;0.50;;
1957;SDS011;979;51.076;13.748;2023-08-08T08:40:07;0.50;;;0.50;;
1957;SDS011;979;51.076;13.748;2023-08-08T08:42:39;1.00;;;1.00;;
1957;SDS011;979;51.076;13.748;2023-08-08T08:45:08;1.43;;;1.17;;
1957;SDS011;979;51.076;13.748;2023-08-08T08:47:37;0.50;;;0.50;;
1957;SDS011;979;51.076;13.748;2023-08-08T08:50:10;0.60;;;0.60;;
1957;SDS011;979;51.076;13.748;2023-08-08T08:52:40;0.60;;;0.60;;
1957;SDS011;979;51.076;13.748;2023-08-08T08:55:10;0.70;;;0.70;;
1957;SDS011;979;51.076;13.748;2023-08-08T08:57:38;1.63;;;1.53;;
1957;SDS011;979;51.076;13.748;2023-08-08T09:00:10;1.03;;;0.80;;
1957;SDS011;979;51.076;13.748;2023-08-08T09:02:38;0.60;;;0.60;;
1957;SDS011;979;51.076;13.748;2023-08-08T09:05:07;0.70;;;0.70;;
1957;SDS011;979;51.076;13.748;2023-08-08T09:07:37;0.50;;;0.50;;
1957;SDS011;979;51.076;13.748;2023-08-08T09:10:06;0.50;;;0.50;;
1957;SDS011;979;51.076;13.748;2023-08-08T09:12:35;0.80;;;0.80;;
1957;SDS011;979;51.076;13.748;2023-08-08T09:15:03;0.60;;;0.60;;
1957;SDS011;979;51.076;13.748;2023-08-08T09:17:33;1.00;;;0.90;;
1957;SDS011;979;51.076;13.748;2023-08-08T09:20:14;0.90;;;0.90;;
1957;SDS011;979;51.076;13.748;2023-08-08T09:22:46;0.60;;;0.60;;
1957;SDS011;979;51.076;13.748;2023-08-08T09:25:17;0.50;;;0.50;;
1957;SDS011;979;51.076;13.748;2023-08-08T09:27:45;2.70;;;1.77;;
1957;SDS011;979;51.076;13.748;2023-08-08T09:30:14;0.57;;;0.57;;
1957;SDS011;979;51.076;13.748;2023-08-08T09:32:45;0.63;;;0.63;;
1957;SDS011;979;51.076;13.748;2023-08-08T09:35:16;0.70;;;0.70;;
1957;SDS011;979;51.076;13.748;2023-08-08T09:37:49;0.70;;;0.70;;
1957;SDS011;979;51.076;13.748;2023-08-08T09:40:21;0.50;;;0.50;;
1957;SDS011;979;51.076;13.748;2023-08-08T09:42:50;0.90;;;0.77;;
1957;SDS011;979;51.076;13.748;2023-08-08T09:45:19;0.50;;;0.50;;
1957;SDS011;979;51.076;13.748;2023-08-08T09:47:49;0.50;;;0.50;;
1957;SDS011;979;51.076;13.748;2023-08-08T09:50:19;0.50;;;0.50;;
1957;SDS011;979;51.076;13.748;2023-08-08T09:52:49;0.60;;;0.60;;
1957;SDS011;979;51.076;13.748;2023-08-08T09:55:19;0.50;;;0.50;;
1957;SDS011;979;51.076;13.748;2023-08-08T09:57:50;0.50;;;0.50;;
1957;SDS011;979;51.076;13.748;2023-08-08T10:00:20;0.50;;;0.50;;
1957;SDS011;979;51.076;13.748;2023-08-08T10:02:48;2.70;;;0.93;;
1957;SDS011;979;51.076;13.748;2023-08-08T10:05:17;0.50;;;0.50;;
1957;SDS011;979;51.076;13.748;2023-08-08T10:07:49;0.60;;;0.60;;
1957;SDS011;979;51.076;13.748;2023-08-08T10:10:19;0.80;;;0.80;;
1957;SDS011;979;51.076;13.748;2023-08-08T10:12:48;0.70;;;0.70;;
1957;SDS011;979;51.076;13.748;2023-08-08T10:15:18;0.80;;;0.80;;
1957;SDS011;979;51.076;13.748;2023-08-08T10:17:47;1.37;;;1.27;;
1957;SDS011;979;51.076;13.748;2023-08-08T10:20:24;0.70;;;0.60;;
1957;SDS011;979;51.076;13.748;2023-08-08T10:22:54;1.83;;;1.43;;
1957;SDS011;979;51.076;13.748;2023-08-08T10:25:26;0.60;;;0.60;;
1957;SDS011;979;51.076;13.748;2023-08-08T10:28:01;1.90;;;1.90;;
1957;SDS011;979;51.076;13.748;2023-08-08T10:30:52;0.50;;;0.50;;
1957;SDS011;979;51.076;13.748;2023-08-08T10:33:22;0.73;;;0.73;;
1957;SDS011;979;51.076;13.748;2023-08-08T10:35:54;0.57;;;0.57;;
1957;SDS011;979;51.076;13.748;2023-08-08T10:38:39;0.50;;;0.50;;
1957;SDS011;979;51.076;13.748;2023-08-08T10:41:10;0.50;;;0.50;;
1957;SDS011;979;51.076;13.748;2023-08-08T10:43:47;0.60;;;0.60;;
1957;SDS011;979;51.076;13.748;2023-08-08T10:46:23;0.70;;;0.70;;
1957;SDS011;979;51.076;13.748;2023-08-08T10:48:52;0.60;;;0.60;;
1957;SDS011;979;51.076;13.748;2023-08-08T10:51:31;1.33;;;0.60;;
1957;SDS011;979;51.076;13.748;2023-08-08T10:54:05;0.50;;;0.50;;
1957;SDS011;979;51.076;13.748;2023-08-08T10:56:36;0.63;;;0.63;;
1957;SDS011;979;51.076;13.748;2023-08-08T10:59:13;0.73;;;0.73;;
1957;SDS011;979;51.076;13.748;2023-08-08T11:01:47;0.60;;;0.60;;
1957;SDS011;979;51.076;13.748;2023-08-08T11:04:18;1.10;;;1.00;;
1957;SDS011;979;51.076;13.748;2023-08-08T11:06:49;0.50;;;0.50;;
1957;SDS011;979;51.076;13.748;2023-08-08T11:09:24;0.50;;;0.50;;
1957;SDS011;979;51.076;13.748;2023-08-08T11:11:53;0.50;;;0.50;;
1957;SDS011;979;51.076;13.748;2023-08-08T11:14:23;1.27;;;1.17;;
1957;SDS011;979;51.076;13.748;2023-08-08T11:16:52;0.50;;;0.50;;
1957;SDS011;979;51.076;13.748;2023-08-08T11:19:21;0.60;;;0.60;;
1957;SDS011;979;51.076;13.748;2023-08-08T11:21:52;1.10;;;1.10;;
1957;SDS011;979;51.076;13.748;2023-08-08T11:24:21;0.60;;;0.50;;
1957;SDS011;979;51.076;13.748;2023-08-08T11:26:57;0.50;;;0.50;;
1957;SDS011;979;51.076;13.748;2023-08-08T11:29:28;0.97;;;0.97;;
1957;SDS011;979;51.076;13.748;2023-08-08T11:32:00;6.23;;;0.83;;
1957;SDS011;979;51.076;13.748;2023-08-08T11:34:33;0.60;;;0.60;;
1957;SDS011;979;51.076;13.748;2023-08-08T11:37:02;0.50;;;0.50;;
1957;SDS011;979;51.076;13.748;2023-08-08T11:39:31;0.60;;;0.60;;
1957;SDS011;979;51.076;13.748;2023-08-08T11:42:04;0.50;;;0.50;;
1957;SDS011;979;51.076;13.748;2023-08-08T11:44:33;1.17;;;1.17;;
1957;SDS011;979;51.076;13.748;2023-08-08T11:47:01;0.67;;;0.67;;
1957;SDS011;979;51.076;13.748;2023-08-08T11:49:38;0.73;;;0.73;;
1957;SDS011;979;51.076;13.748;2023-08-08T11:52:08;0.87;;;0.70;;
1957;SDS011;979;51.076;13.748;2023-08-08T11:54:39;0.50;;;0.50;;
1957;SDS011;979;51.076;13.748;2023-08-08T11:57:09;0.60;;;0.60;;
1957;SDS011;979;51.076;13.748;2023-08-08T11:59:38;0.60;;;0.60;;
1957;SDS011;979;51.076;13.748;2023-08-08T12:02:07;1.73;;;1.63;;
1957;SDS011;979;51.076;13.748;2023-08-08T12:04:39;3.37;;;1.43;;
1957;SDS011;979;51.076;13.748;2023-08-08T12:07:11;0.90;;;0.90;;
1957;SDS011;979;51.076;13.748;2023-08-08T12:09:40;0.50;;;0.50;;
1957;SDS011;979;51.076;13.748;2023-08-08T12:12:09;0.60;;;0.60;;
1957;SDS011;979;51.076;13.748;2023-08-08T12:14:38;0.80;;;0.80;;
1957;SDS011;979;51.076;13.748;2023-08-08T12:17:25;0.50;;;0.50;;
1957;SDS011;979;51.076;13.748;2023-08-08T12:19:53;0.70;;;0.70;;
1957;SDS011;979;51.076;13.748;2023-08-08T12:22:24;0.50;;;0.50;;
1957;SDS011;979;51.076;13.748;2023-08-08T12:24:55;0.50;;;0.50;;
1957;SDS011;979;51.076;13.748;2023-08-08T12:27:25;0.50;;;0.50;;
1957;SDS011;979;51.076;13.748;2023-08-08T12:29:53;0.70;;;0.70;;
1957;SDS011;979;51.076;13.748;2023-08-08T12:32:24;2.13;;;0.93;;
1957;SDS011;979;51.076;13.748;2023-08-08T12:34:55;0.50;;;0.50;;
1957;SDS011;979;51.076;13.748;2023-08-08T12:37:23;0.50;;;0.50;;
1957;SDS011;979;51.076;13.748;2023-08-08T12:39:52;0.50;;;0.50;;
1957;SDS011;979;51.076;13.748;2023-08-08T12:42:20;0.83;;;0.80;;
1957;SDS011;979;51.076;13.748;2023-08-08T12:44:50;1.00;;;0.90;;
1957;SDS011;979;51.076;13.748;2023-08-08T12:47:21;0.60;;;0.60;;
1957;SDS011;979;51.076;13.748;2023-08-08T12:49:49;0.50;;;0.50;;
1957;SDS011;979;51.076;13.748;2023-08-08T12:52:17;0.50;;;0.50;;
1957;SDS011;979;51.076;13.748;2023-08-08T12:54:45;0.50;;;0.50;;
1957;SDS011;979;51.076;13.748;2023-08-08T12:57:15;0.70;;;0.70;;
1957;SDS011;979;51.076;13.748;2023-08-08T12:59:44;1.10;;;0.80;;
1957;SDS011;979;51.076;13.748;2023-08-08T13:02:13;0.50;;;0.50;;
1957;SDS011;979;51.076;13.748;2023-08-08T13:04:41;3.80;;;0.90;;
1957;SDS011;979;51.076;13.748;2023-08-08T13:07:10;0.70;;;0.70;;
1957;SDS011;979;51.076;13.748;2023-08-08T13:09:40;1.30;;;1.27;;
1957;SDS011;979;51.076;13.748;2023-08-08T13:12:10;2.10;;;2.00;;
1957;SDS011;979;51.076;13.748;2023-08-08T13:14:39;2.33;;;2.13;;
1957;SDS011;979;51.076;13.748;2023-08-08T13:17:07;2.23;;;2.13;;
1957;SDS011;979;51.076;13.748;2023-08-08T13:19:38;2.37;;;1.90;;
1957;SDS011;979;51.076;13.748;2023-08-08T13:22:09;2.50;;;2.30;;
1957;SDS011;979;51.076;13.748;2023-08-08T13:24:38;2.77;;;2.30;;
1957;SDS011;979;51.076;13.748;2023-08-08T13:27:07;2.50;;;2.30;;
1957;SDS011;979;51.076;13.748;2023-08-08T13:29:35;2.40;;;2.17;;
1957;SDS011;979;51.076;13.748;2023-08-08T13:32:06;2.80;;;2.30;;
1957;SDS011;979;51.076;13.748;2023-08-08T13:34:37;1.90;;;1.80;;
1957;SDS011;979;51.076;13.748;2023-08-08T13:37:05;2.20;;;2.10;;
1957;SDS011;979;51.076;13.748;2023-08-08T13:39:34;2.60;;;2.40;;
1957;SDS011;979;51.076;13.748;2023-08-08T13:42:02;2.80;;;2.60;;
1957;SDS011;979;51.076;13.748;2023-08-08T13:44:31;2.63;;;2.43;;
1957;SDS011;979;51.076;13.748;2023-08-08T13:46:59;3.10;;;2.10;;
1957;SDS011;979;51.076;13.748;2023-08-08T13:49:30;3.40;;;3.03;;
1957;SDS011;979;51.076;13.748;2023-08-08T13:52:00;2.83;;;2.47;;
1957;SDS011;979;51.076;13.748;2023-08-08T13:54:37;2.60;;;2.40;;
1957;SDS011;979;51.076;13.748;2023-08-08T13:57:05;2.47;;;2.27;;
1957;SDS011;979;51.076;13.748;2023-08-08T13:59:33;2.10;;;2.00;;
1957;SDS011;979;51.076;13.748;2023-08-08T14:02:11;12.53;;;2.60;;
1957;SDS011;979;51.076;13.748;2023-08-08T14:04:43;2.27;;;2.13;;
1957;SDS011;979;51.076;13.748;2023-08-08T14:07:14;4.90;;;2.20;;
1957;SDS011;979;51.076;13.748;2023-08-08T14:09:42;2.10;;;2.00;;
1957;SDS011;979;51.076;13.748;2023-08-08T14:12:10;2.40;;;2.20;;
1957;SDS011;979;51.076;13.748;2023-08-08T14:14:39;2.10;;;1.93;;
1957;SDS011;979;51.076;13.748;2023-08-08T14:17:09;2.40;;;2.30;;
1957;SDS011;979;51.076;13.748;2023-08-08T14:19:38;2.40;;;2.20;;
1957;SDS011;979;51.076;13.748;2023-08-08T14:22:06;2.23;;;2.13;;
1957;SDS011;979;51.076;13.748;2023-08-08T14:24:36;3.80;;;3.50;;
1957;SDS011;979;51.076;13.748;2023-08-08T14:27:04;8.40;;;8.20;;
1957;SDS011;979;51.076;13.748;2023-08-08T14:29:33;11.70;;;11.33;;
1957;SDS011;979;51.076;13.748;2023-08-08T14:32:01;11.87;;;11.53;;
1957;SDS011;979;51.076;13.748;2023-08-08T14:34:30;11.90;;;11.40;;
1957;SDS011;979;51.076;13.748;2023-08-08T14:37:00;12.20;;;11.80;;
1957;SDS011;979;51.076;13.748;2023-08-08T14:39:32;13.10;;;12.70;;
1957;SDS011;979;51.076;13.748;2023-08-08T14:42:10;13.17;;;12.67;;
1957;SDS011;979;51.076;13.748;2023-08-08T14:44:38;13.70;;;13.00;;
1957;SDS011;979;51.076;13.748;2023-08-08T14:47:06;13.30;;;12.67;;
1957;SDS011;979;51.076;13.748;2023-08-08T14:49:34;13.07;;;12.57;;
1957;SDS011;979;51.076;13.748;2023-08-08T14:52:03;13.50;;;13.10;;
1957;SDS011;979;51.076;13.748;2023-08-08T14:54:43;11.40;;;10.90;;
1957;SDS011;979;51.076;13.748;2023-08-08T14:57:12;12.67;;;12.27;;
1957;SDS011;979;51.076;13.748;2023-08-08T14:59:44;13.97;;;13.43;;
1957;SDS011;979;51.076;13.748;2023-08-08T15:02:13;13.67;;;13.17;;
1957;SDS011;979;51.076;13.748;2023-08-08T15:04:41;14.10;;;13.70;;
1957;SDS011;979;51.076;13.748;2023-08-08T15:07:12;14.93;;;14.17;;
1957;SDS011;979;51.076;13.748;2023-08-08T15:09:40;14.40;;;13.80;;
1957;SDS011;979;51.076;13.748;2023-08-08T15:12:08;15.07;;;14.57;;
1957;SDS011;979;51.076;13.748;2023-08-08T15:14:40;14.80;;;14.30;;
1957;SDS011;979;51.076;13.748;2023-08-08T15:17:09;14.77;;;14.20;;
1957;SDS011;979;51.076;13.748;2023-08-08T15:19:39;15.03;;;14.63;;
1957;SDS011;979;51.076;13.748;2023-08-08T15:22:10;14.83;;;14.43;;
1957;SDS011;979;51.076;13.748;2023-08-08T15:24:38;15.10;;;14.60;;
1957;SDS011;979;51.076;13.748;2023-08-08T15:27:06;15.77;;;15.10;;
1957;SDS011;979;51.076;13.748;2023-08-08T15:29:37;15.40;;;15.00;;